• Join FlightAware (Why Join?)
  • Login
  • US Flag 
07:51PM EDT


 

Airport Tracker/Info


-or-


 

Live Flight TrackerFlight Track Log ✈ EJA922 ✈ 28-Feb-2014 ✈ KGJT - KHPN

Flight Track Log - Related Links

Times and Time Zones

All times are in EST time to prevent confusion due to time zone crossing. See the EJA922 flight status page for this flight to view local times or setup timezone preferences in your user account.

Time Position Orientation Groundspeed Altitude Reporting Facility
EST Latitude Longitude Course Direction KTS MPH feet Rate Location/Type
10:48PM 39.0833 -108.4833 169° South 220 253 8,700  Level Denver TRACON
10:48PM 39.0167 -108.4667 169° South 270 311 11,500 2,640 Climbing Denver TRACON
10:50PM 39.0444 -108.2658 80° East 418 481 15,100 2,400 Climbing Denver Center
10:51PM 39.0872 -108.1164 70° East 439 505 17,600 2,400 Climbing Denver Center
10:52PM 39.1300 -107.9747 69° East 446 513 20,100 2,220 Climbing Denver Center
10:53PM 39.1792 -107.8033 70° East 456 525 22,300 2,160 Climbing Denver Center
10:54PM 39.2239 -107.6492 69° East 472 543 24,600 2,040 Climbing Denver Center
10:55PM 39.2744 -107.4653 70° East 485 558 26,600 2,100 Climbing Denver Center
10:56PM 39.2947 -107.2981 81° East 491 565 29,000 1,980 Climbing Denver Center
10:57PM 39.3156 -107.1308 81° East 492 566 30,700 1,260 Climbing Denver Center
10:58PM 39.3592 -106.9211 75° East 535 616 31,700 1,080 Climbing Denver Center
10:59PM 39.3967 -106.7400 75° East 544 626 33,000 1,440 Climbing Denver Center
11:00PM 39.4417 -106.5181 75° East 572 658 34,800 1,680 Climbing Denver Center
11:01PM 39.4825 -106.3156 75° East 582 670 36,500 1,980 Climbing Denver Center
11:02PM 39.5225 -106.1153 75° East 572 658 38,900 1,200 Climbing Denver Center
11:03PM 39.5628 -105.9047 76° East 565 650 39,000  Climbing Denver Center
11:04PM 39.5992 -105.7125 76° East 584 672 39,000 360 Level Denver Center
11:05PM 39.6383 -105.5033 76° East 594 684 39,800 780 Climbing Denver Center
11:06PM 39.6867 -105.2542 76° East 594 684 40,700 540 Climbing Denver Center
11:07PM 39.7258 -105.0425 76° East 594 684 41,000 120 Climbing Denver Center
11:08PM 39.7661 -104.8242 76° East 607 699 41,000  Level Denver Center
11:09PM 39.8064 -104.6011 77° East 615 708 41,000  Level Denver Center
11:10PM 39.8464 -104.3806 77° East 617 710 41,000  Level Denver Center
11:11PM 39.8853 -104.1614 77° East 618 711 41,000  Level Denver Center
11:13PM 39.9242 -103.9414 77° East 618 711 41,000  Level Denver Center
11:14PM 39.9625 -103.7233 77° East 620 713 41,000  Level Denver Center
11:15PM 39.9997 -103.5042 77° East 620 713 41,000  Level Denver Center
11:16PM 40.0372 -103.2850 77° East 620 713 41,000  Level Denver Center
11:17PM 40.0742 -103.0653 78° East 620 713 41,000  Level Denver Center
11:18PM 40.1169 -102.7994 78° East 621 715 41,000  Level Denver Center
11:19PM 40.1531 -102.5886 77° East 622 716 41,000  Level Denver Center
11:20PM 40.1869 -102.3753 78° East 625 719 41,000  Level Denver Center
11:21PM 40.2269 -102.1278 78° East 624 718 41,000  Level Denver Center
11:22PM 40.2597 -101.9164 78° East 622 716 41,000  Level Denver Center
11:23PM 40.2975 -101.6700 79° East 621 715 41,000  Level Denver Center
11:24PM 40.3306 -101.4586 78° East 621 715 41,000  Level Denver Center
11:25PM 40.3678 -101.2133 79° East 621 715 41,000  Level Denver Center
11:26PM 40.3992 -101.0019 79° East 620 713 41,000  Level Denver Center
11:27PM 40.4350 -100.7569 79° East 620 713 41,000  Level Denver Center
11:28PM 40.4647 -100.5472 79° East 619 712 41,000  Level Denver Center
11:29PM 40.4994 -100.3019 79° East 619 712 41,000  Level Denver Center
11:30PM 40.5297 -100.0917 79° East 617 710 41,000  Level Denver Center
11:31PM 40.5578 -99.8811 80° East 616 709 41,000  Level Denver Center
11:32PM 40.5911 -99.6425 80° East 616 709 41,000  Level Denver Center
11:33PM 40.6214 -99.4236 80° East 613 705 41,000  Level Denver Center
11:34PM 40.6383 -99.2925 80° East 614 707 41,000  Level Minneapolis Center
11:35PM 40.6725 -99.0306 80° East 613 705 41,000  Level Minneapolis Center
11:36PM 40.6997 -98.8153 80° East 610 702 41,000  Level Minneapolis Center
11:37PM 40.7267 -98.6003 81° East 606 697 41,000  Level Minneapolis Center
11:38PM 40.7533 -98.3853 81° East 606 697 41,000 240 Level Minneapolis Center
11:39PM 40.7797 -98.1703 81° East 603 694 41,600 600 Climbing Minneapolis Center
11:40PM 40.8050 -97.9603 81° East 590 679 42,300 660 Climbing Minneapolis Center
11:41PM 40.8303 -97.7536 81° East 579 666 43,000 300 Climbing Minneapolis Center
11:42PM 40.8533 -97.5447 82° East 578 665 43,000  Level Minneapolis Center
11:43PM 40.8797 -97.3283 81° East 580 667 43,000  Level Minneapolis Center
11:44PM 40.9039 -97.1142 81° East 587 676 43,000  Level Minneapolis Center
11:45PM 40.9275 -96.8989 82° East 589 678 43,000  Level Minneapolis Center
11:46PM 40.9511 -96.6825 82° East 593 682 43,000  Level Minneapolis Center
11:47PM 40.9783 -96.4247 82° East 594 684 43,000  Level Minneapolis Center
11:48PM 41.0022 -96.2064 82° East 595 685 43,000  Level Minneapolis Center
11:49PM 41.0236 -95.9897 82° East 599 689 43,000  Level Minneapolis Center
11:50PM 41.0453 -95.7731 82° East 600 690 43,000  Level Minneapolis Center
11:51PM 41.0667 -95.5542 83° East 604 695 43,000  Level Minneapolis Center
11:52PM 41.0906 -95.3114 82° East 604 695 43,000  Level Minneapolis Center
11:53PM 41.1108 -95.1131 82° East 605 696 43,000  Level Minneapolis Center
11:54PM 41.1306 -94.8922 83° East 605 696 43,000  Level Minneapolis Center
11:55PM 41.1508 -94.6700 83° East 605 696 43,000  Level Minneapolis Center
11:56PM 41.1700 -94.4467 83° East 606 697 43,000  Level Minneapolis Center
11:57PM 41.1925 -94.2025 83° East 610 702 43,000  Level Minneapolis Center
11:58PM 41.2097 -93.9792 84° East 610 702 43,000  Level Minneapolis Center
11:59PM 41.2294 -93.7528 83° East 613 705 43,000  Level Minneapolis Center
12:00AM 41.2483 -93.5261 84° East 616 709 43,000  Level Minneapolis Center
12:01AM 41.2661 -93.2983 84° East 620 713 43,000  Level Minneapolis Center
12:02AM 41.2833 -93.0708 84° East 620 713 43,000  Level Minneapolis Center
12:03AM 41.3003 -92.8439 84° East 620 713 43,000  Level Minneapolis Center
12:04AM 41.3178 -92.6169 84° East 619 712 43,000  Level Minneapolis Center
12:05AM 41.3336 -92.3894 85° East 619 712 43,000  Level Minneapolis Center
12:06AM 41.3525 -92.1181 85° East 618 711 43,000  Level Minneapolis Center
12:07AM 41.3675 -91.8925 85° East 618 711 43,000  Level Minneapolis Center
12:08AM 41.3803 -91.6914 85° East 618 711 43,000  Level Minneapolis Center
12:10AM 41.4014 -91.3739 85° East 613 705 43,000  Level Chicago Center
12:11AM 41.4144 -91.1447 86° East 607 699 43,000  Level Chicago Center
12:12AM 41.4272 -90.9222 86° East 604 695 43,000  Level Chicago Center
12:13AM 41.4406 -90.6992 85° East 603 694 43,000  Level Chicago Center
12:14AM 41.4525 -90.4744 86° East 605 696 43,000  Level Chicago Center
12:15AM 41.4636 -90.2511 86° East 603 694 43,000  Level Chicago Center
12:17AM 41.4861 -89.8017 86° East 605 696 43,000  Level Chicago Center
12:18AM 41.4967 -89.5783 86° East 602 693 43,000  Level Chicago Center
12:19AM 41.5067 -89.3542 87° East 603 694 43,000  Level Chicago Center
12:20AM 41.5153 -89.1328 87° East 596 686 43,000  Level Chicago Center
12:21AM 41.5244 -88.9114 87° East 596 686 43,000  Level Chicago Center
12:22AM 41.5403 -88.6914 84° East 596 686 43,000  Level Chicago Center
12:23AM 41.5647 -88.4714 81° East 596 686 43,000  Level Chicago Center
12:24AM 41.5875 -88.2517 82° East 594 684 43,000  Level Chicago Center
12:25AM 41.6111 -88.0286 82° East 595 685 43,000  Level Chicago Center
12:26AM 41.6336 -87.8075 82° East 592 681 43,000  Level Chicago Center
12:27AM 41.6547 -87.5900 83° East 587 676 43,000  Level Chicago Center
12:28AM 41.6758 -87.3736 82° East 587 676 43,000  Level Chicago Center
12:29AM 41.6953 -87.1567 83° East 583 671 43,000  Level Chicago Center
12:30AM 41.7150 -86.9397 83° East 585 673 43,000  Level Chicago Center
12:31AM 41.7369 -86.7033 83° East 585 673 43,000  Level Chicago Center
12:32AM 41.7553 -86.4872 83° East 584 672 43,000  Level Chicago Center
12:33AM 41.7744 -86.2697 83° East 587 676 43,000  Level Chicago Center
12:34AM 41.7925 -86.0536 84° East 585 673 43,000  Level Chicago Center
12:35AM 41.8103 -85.8364 84° East 583 671 43,000  Level Chicago Center
12:36AM 41.8283 -85.6178 84° East 585 673 43,000  Level Chicago Center
12:37AM 41.8458 -85.3969 84° East 583 671 43,000  Level Chicago Center
12:38AM 41.8622 -85.1783 84° East 580 667 43,000  Level Chicago Center
12:39AM 41.8792 -84.9606 84° East 583 671 43,000  Level Chicago Center
12:40AM 41.8950 -84.7417 84° East 590 679 43,000  Level Chicago Center
12:41AM 41.9092 -84.5253 85° East 585 673 43,000  Level Chicago Center
12:42AM 41.9242 -84.3094 85° East 581 669 43,000  Level Chicago Center
12:43AM 41.9400 -84.0928 84° East 584 672 43,000  Level Chicago Center
12:44AM 41.9544 -83.8708 85° East 581 669 43,000  Level Chicago Center
12:45AM 41.9672 -83.6539 85° East 581 669 43,000  Level Cleveland Center
12:46AM 41.9800 -83.4461 85° East 579 666 43,000  Level Cleveland Center
12:47AM 41.9928 -83.2286 85° East 578 665 43,000  Level Cleveland Center
12:48AM 42.0053 -83.0214 85° East 577 664 43,000  Level Cleveland Center
12:49AM 42.0167 -82.7939 86° East 577 664 43,000  Level Cleveland Center
12:50AM 42.0278 -82.5931 86° East 578 665 43,000  Level Cleveland Center
12:51AM 42.0369 -82.3803 87° East 577 664 43,000  Level Cleveland Center
12:52AM 42.0519 -82.1217 85° East 578 665 43,000  Level Cleveland Center
12:53AM 42.0611 -81.9203 86° East 578 665 43,000  Level Cleveland Center
12:54AM 42.0717 -81.7014 86° East 578 665 43,000  Level Cleveland Center
12:55AM 42.0819 -81.4808 86° East 579 666 43,000  Level Cleveland Center
12:56AM 42.0903 -81.2625 87° East 579 666 43,000  Level Cleveland Center
12:57AM 42.0997 -81.0439 87° East 579 666 43,000  Level Cleveland Center
12:58AM 42.1081 -80.8256 87° East 578 665 43,000  Level Cleveland Center
12:59AM 42.1164 -80.6072 87° East 578 665 43,000  Level Cleveland Center
01:00AM 42.1239 -80.3897 87° East 577 664 43,000  Level Cleveland Center
01:01AM 42.1303 -80.2083 87° East 577 664 43,000  Level Cleveland Center
01:02AM 42.1375 -79.9594 88° East 578 665 43,000  Level Cleveland Center
01:03AM 42.1433 -79.7733 88° East 576 663 43,000  Level Cleveland Center
01:04AM 42.1481 -79.5597 88° East 575 662 43,000  Level Cleveland Center
01:05AM 42.1531 -79.3458 88° East 572 658 43,000  Level Cleveland Center
01:06AM 42.1586 -79.1292 88° East 576 663 43,000  Level Cleveland Center
01:07AM 42.1625 -78.9142 89° East 576 663 43,000  Level Cleveland Center
01:08AM 42.1669 -78.6964 88° East 578 665 43,000  Level Cleveland Center
01:09AM 42.1717 -78.4800 88° East 578 665 43,000  Level Cleveland Center
01:10AM 42.1753 -78.2639 89° East 577 664 43,000  Level Cleveland Center
01:11AM 42.1789 -78.0506 89° East 577 664 43,000  Level Cleveland Center
01:12AM 42.1817 -77.8375 89° East 576 663 43,000  Level Cleveland Center
01:13AM 42.1842 -77.5819 89° East 577 664 43,000  Level Cleveland Center
01:14AM 42.1861 -77.3681 89° East 576 663 43,000  Level Cleveland Center
01:15AM 42.1808 -77.1550 92° East 576 663 43,000  Level Cleveland Center
01:16AM 42.1311 -76.9519 108° East 577 664 43,000  Level Cleveland Center
01:17AM 42.0736 -76.7553 111° Southeast 571 657 43,000  Level Cleveland Center
01:18AM 42.0153 -76.5581 112° Southeast 570 656 43,000 -1,080 Level Cleveland Center
01:19AM 41.9561 -76.3603 112° Southeast 570 656 40,900 -2,580 Descending Cleveland Center
01:20AM 41.9025 -76.1806 112° Southeast 571 657 38,100 -3,060 Descending Boston Center
01:21AM 41.8433 -75.9847 112° Southeast 566 651 35,100 -2,940 Descending Boston Center
01:22AM 41.7850 -75.7911 112° Southeast 555 639 32,200 -2,940 Descending Boston Center
01:23AM 41.7253 -75.5950 112° Southeast 562 647 29,200 -2,880 Descending Boston Center
01:24AM 41.6650 -75.4022 113° Southeast 558 642 26,200 -2,820 Descending New York Center
01:25AM 41.6103 -75.2233 112° Southeast 523 602 23,400 -2,700 Descending New York Center
01:26AM 41.5561 -75.0497 113° Southeast 504 580 20,800 -2,760 Descending New York Center
01:27AM 41.4956 -74.8594 113° Southeast 494 568 17,900 -2,700 Descending New York Center
01:28AM 41.4472 -74.7047 113° Southeast 452 520 15,400 -1,800 Descending New York Center
01:29AM 41.4111 -74.5925 113° Southeast 400 460 14,500 -1,440 Descending Boston Center
01:30AM 41.3736 -74.4747 113° Southeast 351 404 12,700 -1,800 Descending Boston Center
01:31AM 41.3500 -74.3833 109° East 340 391 11,500 -1,740 Descending New York TRACON
01:32AM 41.3167 -74.2667 111° Southeast 327 376 9,800 -1,620 Descending New York TRACON
01:33AM 41.2667 -74.1667 124° Southeast 300 345 8,100 -1,500 Descending New York TRACON
01:34AM 41.2500 -74.0667 102° East 287 330 6,700 -1,440 Descending New York TRACON
01:35AM 41.2167 -73.9833 118° Southeast 266 306 5,300 -1,140 Descending New York TRACON
01:36AM 41.2167 -73.8833 90° East 247 284 4,500 -900 Descending New York TRACON
01:37AM 41.2333 -73.8167 72° East 210 242 3,700 -900 Descending New York TRACON
01:40AM 41.0667 -73.7000 166° South  Level FlightAware Approximate
01:47AM 41.0669 -73.7076 166° South  Level Estimated
01:48AM 41.0667 -73.7000 166° South  Level FlightAware Approximate